sensor_id;sensor_type;location;lat;lon;timestamp;pressure;altitude;pressure_sealevel;temperature;humidity
39491;BME280;25175;50.140;18.990;2024-03-23T01:03:05;97833.91;;;11.09;51.92
39491;BME280;25175;50.140;18.990;2024-03-23T01:13:23;97817.63;;;10.89;51.49
39491;BME280;25175;50.140;18.990;2024-03-23T01:17:22;97807.59;;;10.86;52.00
39491;BME280;25175;50.140;18.990;2024-03-23T01:20:31;97809.19;;;10.87;51.93
39491;BME280;25175;50.140;18.990;2024-03-23T01:23:38;97810.22;;;10.86;52.38
39491;BME280;25175;50.140;18.990;2024-03-23T01:27:03;97801.75;;;10.84;52.57
39491;BME280;25175;50.140;18.990;2024-03-23T01:30:13;97799.72;;;10.86;52.75
39491;BME280;25175;50.140;18.990;2024-03-23T01:33:20;97805.75;;;10.86;52.54
39491;BME280;25175;50.140;18.990;2024-03-23T01:36:52;97788.66;;;10.84;52.44
39491;BME280;25175;50.140;18.990;2024-03-23T01:39:57;97791.88;;;10.86;52.69
39491;BME280;25175;50.140;18.990;2024-03-23T01:46:47;97785.25;;;10.83;52.14
39491;BME280;25175;50.140;18.990;2024-03-23T01:50:07;97787.53;;;10.80;52.04
39491;BME280;25175;50.140;18.990;2024-03-23T01:53:27;97781.56;;;10.73;51.84
39491;BME280;25175;50.140;18.990;2024-03-23T02:00:57;97769.00;;;10.63;51.58
39491;BME280;25175;50.140;18.990;2024-03-23T02:04:09;97772.88;;;10.61;51.53
39491;BME280;25175;50.140;18.990;2024-03-23T02:07:13;97768.09;;;10.58;51.57
39491;BME280;25175;50.140;18.990;2024-03-23T02:10:51;97766.47;;;10.57;51.64
39491;BME280;25175;50.140;18.990;2024-03-23T02:14:38;97763.28;;;10.55;51.54
39491;BME280;25175;50.140;18.990;2024-03-23T02:21:03;97758.03;;;10.55;51.61
39491;BME280;25175;50.140;18.990;2024-03-23T02:24:45;97746.16;;;10.52;51.56
39491;BME280;25175;50.140;18.990;2024-03-23T02:27:54;97749.25;;;10.49;51.58
39491;BME280;25175;50.140;18.990;2024-03-23T02:30:58;97734.75;;;10.47;51.74
39491;BME280;25175;50.140;18.990;2024-03-23T02:38:14;97728.22;;;10.38;51.97
39491;BME280;25175;50.140;18.990;2024-03-23T02:49:31;97731.28;;;10.35;52.36
39491;BME280;25175;50.140;18.990;2024-03-23T02:52:37;97694.88;;;10.15;52.87
39491;BME280;25175;50.140;18.990;2024-03-23T02:56:08;97714.31;;;10.37;53.04
39491;BME280;25175;50.140;18.990;2024-03-23T03:03:27;97705.06;;;10.35;53.17
39491;BME280;25175;50.140;18.990;2024-03-23T03:06:32;97706.44;;;10.37;53.09
39491;BME280;25175;50.140;18.990;2024-03-23T03:09:42;97715.47;;;10.41;53.77
39491;BME280;25175;50.140;18.990;2024-03-23T03:16:31;97704.38;;;10.28;54.33
39491;BME280;25175;50.140;18.990;2024-03-23T03:19:40;97696.28;;;10.29;54.12
39491;BME280;25175;50.140;18.990;2024-03-23T03:22:50;97699.59;;;10.36;54.07
39491;BME280;25175;50.140;18.990;2024-03-23T03:26:01;97667.69;;;10.39;54.45
39491;BME280;25175;50.140;18.990;2024-03-23T03:29:08;97678.53;;;10.43;54.30
39491;BME280;25175;50.140;18.990;2024-03-23T03:32:14;97621.13;;;10.12;55.18
39491;BME280;25175;50.140;18.990;2024-03-23T03:38:45;97690.72;;;10.49;56.10
39491;BME280;25175;50.140;18.990;2024-03-23T03:42:11;97681.50;;;10.46;56.76
39491;BME280;25175;50.140;18.990;2024-03-23T03:45:22;97677.06;;;10.47;56.33
39491;BME280;25175;50.140;18.990;2024-03-23T03:48:36;97655.50;;;10.33;56.11
39491;BME280;25175;50.140;18.990;2024-03-23T03:51:44;97671.91;;;10.40;57.04
39491;BME280;25175;50.140;18.990;2024-03-23T03:54:48;97670.53;;;10.38;57.95
39491;BME280;25175;50.140;18.990;2024-03-23T03:58:20;97667.56;;;10.34;58.60
39491;BME280;25175;50.140;18.990;2024-03-23T04:01:31;97650.47;;;10.32;58.56
39491;BME280;25175;50.140;18.990;2024-03-23T04:05:39;97665.16;;;10.33;59.07
39491;BME280;25175;50.140;18.990;2024-03-23T04:12:36;97638.69;;;10.23;58.70
39491;BME280;25175;50.140;18.990;2024-03-23T04:15:48;97647.94;;;10.25;59.54
39491;BME280;25175;50.140;18.990;2024-03-23T04:19:40;97653.41;;;10.12;59.82
39491;BME280;25175;50.140;18.990;2024-03-23T04:23:08;97627.50;;;10.04;60.19
39491;BME280;25175;50.140;18.990;2024-03-23T04:26:16;97630.94;;;10.05;60.42
39491;BME280;25175;50.140;18.990;2024-03-23T04:29:50;97616.78;;;10.06;60.59
39491;BME280;25175;50.140;18.990;2024-03-23T04:32:55;97619.88;;;10.14;60.41
39491;BME280;25175;50.140;18.990;2024-03-23T04:36:06;97617.94;;;10.10;59.34
39491;BME280;25175;50.140;18.990;2024-03-23T04:39:21;97602.66;;;10.07;59.53
39491;BME280;25175;50.140;18.990;2024-03-23T04:42:47;97605.06;;;10.08;59.81
39491;BME280;25175;50.140;18.990;2024-03-23T04:46:01;97597.28;;;10.02;59.61
39491;BME280;25175;50.140;18.990;2024-03-23T04:49:08;97589.09;;;9.98;59.88
39491;BME280;25175;50.140;18.990;2024-03-23T04:52:12;97583.16;;;9.91;60.57
39491;BME280;25175;50.140;18.990;2024-03-23T04:55:31;97588.88;;;10.00;60.16
39491;BME280;25175;50.140;18.990;2024-03-23T04:59:21;97593.06;;;10.01;60.50
39491;BME280;25175;50.140;18.990;2024-03-23T05:02:32;97581.00;;;10.00;60.47
39491;BME280;25175;50.140;18.990;2024-03-23T05:05:41;97594.31;;;9.98;60.95
39491;BME280;25175;50.140;18.990;2024-03-23T05:08:48;97597.19;;;9.97;60.64
39491;BME280;25175;50.140;18.990;2024-03-23T05:11:54;97604.94;;;9.92;61.13
39491;BME280;25175;50.140;18.990;2024-03-23T05:19:27;97581.34;;;9.92;61.32
39491;BME280;25175;50.140;18.990;2024-03-23T05:23:19;97580.66;;;9.96;61.50
39491;BME280;25175;50.140;18.990;2024-03-23T05:27:04;97564.88;;;9.73;61.81
39491;BME280;25175;50.140;18.990;2024-03-23T05:30:18;97586.19;;;9.77;62.26
39491;BME280;25175;50.140;18.990;2024-03-23T05:33:29;97586.94;;;9.66;62.49
39491;BME280;25175;50.140;18.990;2024-03-23T05:36:44;97232.34;;;7.34;62.85
39491;BME280;25175;50.140;18.990;2024-03-23T05:39:51;97578.13;;;9.49;63.01
39491;BME280;25175;50.140;18.990;2024-03-23T05:43:22;97585.50;;;9.40;63.67
39491;BME280;25175;50.140;18.990;2024-03-23T05:50:54;97388.63;;;8.02;63.82
39491;BME280;25175;50.140;18.990;2024-03-23T05:53:59;97580.69;;;9.37;64.26
39491;BME280;25175;50.140;18.990;2024-03-23T05:57:03;97575.72;;;9.47;64.26
39491;BME280;25175;50.140;18.990;2024-03-23T06:00:21;97578.00;;;9.55;63.95
39491;BME280;25175;50.140;18.990;2024-03-23T06:03:47;97559.94;;;9.65;63.56
39491;BME280;25175;50.140;18.990;2024-03-23T06:07:17;97557.56;;;9.75;63.57
39491;BME280;25175;50.140;18.990;2024-03-23T06:10:28;97489.88;;;9.49;63.20
39491;BME280;25175;50.140;18.990;2024-03-23T06:13:44;97545.31;;;9.87;63.43
39491;BME280;25175;50.140;18.990;2024-03-23T06:16:53;97542.03;;;9.92;63.64
39491;BME280;25175;50.140;18.990;2024-03-23T06:20:54;97524.16;;;10.00;63.67
39491;BME280;25175;50.140;18.990;2024-03-23T06:24:12;97542.63;;;10.05;63.57
39491;BME280;25175;50.140;18.990;2024-03-23T06:27:19;97531.66;;;10.08;63.50
39491;BME280;25175;50.140;18.990;2024-03-23T06:30:59;97541.72;;;10.11;63.49
39491;BME280;25175;50.140;18.990;2024-03-23T06:34:54;97541.03;;;10.16;63.46
39491;BME280;25175;50.140;18.990;2024-03-23T06:38:14;97527.69;;;10.17;63.64
39491;BME280;25175;50.140;18.990;2024-03-23T06:41:41;97524.03;;;10.18;63.72
39491;BME280;25175;50.140;18.990;2024-03-23T06:44:55;97519.59;;;10.19;64.20
39491;BME280;25175;50.140;18.990;2024-03-23T06:48:01;97524.38;;;10.22;64.59
39491;BME280;25175;50.140;18.990;2024-03-23T06:51:56;97521.31;;;10.25;64.17
39491;BME280;25175;50.140;18.990;2024-03-23T06:55:03;97518.44;;;10.26;64.20
39491;BME280;25175;50.140;18.990;2024-03-23T07:03:01;97513.66;;;10.35;64.29
39491;BME280;25175;50.140;18.990;2024-03-23T07:06:10;97466.94;;;9.97;64.65
39491;BME280;25175;50.140;18.990;2024-03-23T07:09:27;97515.00;;;10.49;64.48
39491;BME280;25175;50.140;18.990;2024-03-23T07:12:31;97540.53;;;10.53;64.18
39491;BME280;25175;50.140;18.990;2024-03-23T07:15:40;97509.38;;;10.57;63.94
39491;BME280;25175;50.140;18.990;2024-03-23T07:19:14;97508.94;;;10.60;64.07
39491;BME280;25175;50.140;18.990;2024-03-23T07:22:40;97245.63;;;9.03;64.24
39491;BME280;25175;50.140;18.990;2024-03-23T07:26:02;97500.56;;;10.74;64.93
39491;BME280;25175;50.140;18.990;2024-03-23T07:29:08;97475.06;;;10.70;65.56
39491;BME280;25175;50.140;18.990;2024-03-23T07:32:15;97498.38;;;10.94;63.96
39491;BME280;25175;50.140;18.990;2024-03-23T07:35:24;97496.75;;;11.05;61.14
39491;BME280;25175;50.140;18.990;2024-03-23T07:38:27;97340.44;;;10.13;59.85
39491;BME280;25175;50.140;18.990;2024-03-23T07:41:41;97489.59;;;11.17;59.17
39491;BME280;25175;50.140;18.990;2024-03-23T07:44:47;97501.56;;;11.24;59.10
39491;BME280;25175;50.140;18.990;2024-03-23T07:47:54;97495.03;;;11.27;58.39
39491;BME280;25175;50.140;18.990;2024-03-23T07:51:06;97482.47;;;11.29;58.09
39491;BME280;25175;50.140;18.990;2024-03-23T07:54:11;97479.91;;;11.34;58.43
39491;BME280;25175;50.140;18.990;2024-03-23T07:57:17;97476.13;;;11.41;59.25
39491;BME280;25175;50.140;18.990;2024-03-23T08:00:22;97482.03;;;11.48;58.94
39491;BME280;25175;50.140;18.990;2024-03-23T08:03:25;97468.81;;;11.60;59.11
39491;BME280;25175;50.140;18.990;2024-03-23T08:06:39;97447.31;;;11.63;58.70
39491;BME280;25175;50.140;18.990;2024-03-23T08:16:54;97427.53;;;12.10;58.14
39491;BME280;25175;50.140;18.990;2024-03-23T08:20:05;97377.50;;;12.05;56.63
39491;BME280;25175;50.140;18.990;2024-03-23T08:23:14;97416.19;;;12.47;55.57
39491;BME280;25175;50.140;18.990;2024-03-23T08:26:18;97419.47;;;12.59;55.79
39491;BME280;25175;50.140;18.990;2024-03-23T08:32:38;97404.03;;;12.94;54.88
39491;BME280;25175;50.140;18.990;2024-03-23T08:35:52;97385.03;;;13.14;53.56
39491;BME280;25175;50.140;18.990;2024-03-23T08:39:03;97174.91;;;11.95;50.18
39491;BME280;25175;50.140;18.990;2024-03-23T08:42:06;97383.94;;;13.41;51.72
39491;BME280;25175;50.140;18.990;2024-03-23T08:45:13;97380.88;;;13.54;50.64
39491;BME280;25175;50.140;18.990;2024-03-23T08:48:16;97360.34;;;13.61;50.19
39491;BME280;25175;50.140;18.990;2024-03-23T08:51:25;97097.00;;;12.05;46.72
39491;BME280;25175;50.140;18.990;2024-03-23T08:54:34;97357.31;;;13.84;45.92
39491;BME280;25175;50.140;18.990;2024-03-23T08:57:38;97356.63;;;13.94;45.90
39491;BME280;25175;50.140;18.990;2024-03-23T09:00:43;97349.53;;;13.99;44.10
39491;BME280;25175;50.140;18.990;2024-03-23T09:04:27;97334.78;;;14.03;43.88
39491;BME280;25175;50.140;18.990;2024-03-23T09:07:32;97320.56;;;14.09;43.97
39491;BME280;25175;50.140;18.990;2024-03-23T09:10:55;97311.88;;;14.19;43.63
39491;BME280;25175;50.140;18.990;2024-03-23T09:14:02;97311.13;;;14.28;43.95
39491;BME280;25175;50.140;18.990;2024-03-23T09:17:08;97247.50;;;14.05;43.40
39491;BME280;25175;50.140;18.990;2024-03-23T09:20:15;97310.66;;;14.51;44.13
39491;BME280;25175;50.140;18.990;2024-03-23T09:23:54;97294.81;;;14.61;42.98
39491;BME280;25175;50.140;18.990;2024-03-23T09:27:15;97291.94;;;14.68;42.68
39491;BME280;25175;50.140;18.990;2024-03-23T09:30:18;97286.66;;;14.77;42.57
39491;BME280;25175;50.140;18.990;2024-03-23T09:33:31;97015.00;;;13.16;42.14
39491;BME280;25175;50.140;18.990;2024-03-23T09:36:41;97276.91;;;14.93;42.54
39491;BME280;25175;50.140;18.990;2024-03-23T09:39:44;97267.16;;;14.99;43.08
39491;BME280;25175;50.140;18.990;2024-03-23T09:43:02;97265.84;;;15.06;41.32
39491;BME280;25175;50.140;18.990;2024-03-23T09:46:09;97254.47;;;15.16;41.77
39491;BME280;25175;50.140;18.990;2024-03-23T09:49:16;97233.03;;;15.22;41.46
39491;BME280;25175;50.140;18.990;2024-03-23T09:52:20;97228.53;;;15.33;41.64
39491;BME280;25175;50.140;18.990;2024-03-23T09:55:24;97225.03;;;15.47;40.32
39491;BME280;25175;50.140;18.990;2024-03-23T09:58:33;97218.41;;;15.59;40.07
39491;BME280;25175;50.140;18.990;2024-03-23T10:01:36;97212.28;;;15.74;40.62
39491;BME280;25175;50.140;18.990;2024-03-23T10:05:23;97196.84;;;15.96;39.38
39491;BME280;25175;50.140;18.990;2024-03-23T10:08:26;97188.00;;;16.10;39.38
39491;BME280;25175;50.140;18.990;2024-03-23T10:11:38;97184.72;;;16.28;39.32
39491;BME280;25175;50.140;18.990;2024-03-23T10:14:45;97178.50;;;16.43;38.69
39491;BME280;25175;50.140;18.990;2024-03-23T10:17:53;97174.75;;;16.54;38.34
39491;BME280;25175;50.140;18.990;2024-03-23T10:21:07;97169.09;;;16.65;38.11
39491;BME280;25175;50.140;18.990;2024-03-23T10:24:19;97177.47;;;16.77;38.44
39491;BME280;25175;50.140;18.990;2024-03-23T10:27:22;97137.44;;;16.79;37.11
39491;BME280;25175;50.140;18.990;2024-03-23T10:30:28;97144.06;;;17.05;37.91
39491;BME280;25175;50.140;18.990;2024-03-23T10:37:05;97137.75;;;17.24;37.29
39491;BME280;25175;50.140;18.990;2024-03-23T10:40:16;97083.41;;;17.03;36.69
39491;BME280;25175;50.140;18.990;2024-03-23T10:43:22;97127.88;;;17.53;37.53
39491;BME280;25175;50.140;18.990;2024-03-23T10:46:36;97124.75;;;17.70;36.75
39491;BME280;25175;50.140;18.990;2024-03-23T10:49:42;97126.09;;;17.86;36.31
39491;BME280;25175;50.140;18.990;2024-03-23T10:53:00;97122.38;;;18.05;35.85
39491;BME280;25175;50.140;18.990;2024-03-23T10:56:11;97104.72;;;18.14;34.73
39491;BME280;25175;50.140;18.990;2024-03-23T10:59:17;97093.75;;;18.21;35.39
39491;BME280;25175;50.140;18.990;2024-03-23T11:02:26;97091.09;;;18.21;34.17
39491;BME280;25175;50.140;18.990;2024-03-23T11:05:38;97087.19;;;18.32;34.79
39491;BME280;25175;50.140;18.990;2024-03-23T11:10:06;97067.44;;;18.38;34.43
39491;BME280;25175;50.140;18.990;2024-03-23T11:13:00;97052.19;;;18.43;34.96
39491;BME280;25175;50.140;18.990;2024-03-23T11:16:39;97039.25;;;18.55;33.93
39491;BME280;25175;50.140;18.990;2024-03-23T11:19:53;97010.50;;;18.57;34.00
39491;BME280;25175;50.140;18.990;2024-03-23T11:23:28;97018.19;;;18.59;33.68
39491;BME280;25175;50.140;18.990;2024-03-23T11:26:38;96992.19;;;18.56;33.58
39491;BME280;25175;50.140;18.990;2024-03-23T11:29:50;97013.44;;;18.56;33.59
39491;BME280;25175;50.140;18.990;2024-03-23T11:32:58;96997.50;;;18.56;33.89
39491;BME280;25175;50.140;18.990;2024-03-23T11:36:05;96992.81;;;18.66;35.05
39491;BME280;25175;50.140;18.990;2024-03-23T11:39:42;96967.38;;;18.74;33.13
39491;BME280;25175;50.140;18.990;2024-03-23T11:42:46;96966.00;;;18.76;33.40
39491;BME280;25175;50.140;18.990;2024-03-23T11:45:52;96950.00;;;18.81;33.06
39491;BME280;25175;50.140;18.990;2024-03-23T11:49:23;96929.72;;;18.85;32.21
39491;BME280;25175;50.140;18.990;2024-03-23T11:52:51;96929.00;;;18.93;32.88
39491;BME280;25175;50.140;18.990;2024-03-23T11:55:57;96687.91;;;17.52;33.03
39491;BME280;25175;50.140;18.990;2024-03-23T11:59:12;96916.28;;;19.04;32.09
39491;BME280;25175;50.140;18.990;2024-03-23T12:02:39;96901.31;;;19.08;32.57
39491;BME280;25175;50.140;18.990;2024-03-23T12:05:53;96912.50;;;19.18;33.44
39491;BME280;25175;50.140;18.990;2024-03-23T12:09:08;96885.91;;;19.18;32.34
39491;BME280;25175;50.140;18.990;2024-03-23T12:12:26;96862.97;;;18.87;31.86
39491;BME280;25175;50.140;18.990;2024-03-23T12:15:32;96879.03;;;19.17;31.96
39491;BME280;25175;50.140;18.990;2024-03-23T12:18:43;96868.63;;;19.29;32.59
39491;BME280;25175;50.140;18.990;2024-03-23T12:22:01;96777.75;;;18.83;31.96
39491;BME280;25175;50.140;18.990;2024-03-23T12:28:40;96830.34;;;19.39;29.75
39491;BME280;25175;50.140;18.990;2024-03-23T12:31:43;96833.34;;;19.46;29.55
39491;BME280;25175;50.140;18.990;2024-03-23T12:35:07;96827.19;;;19.50;30.08
39491;BME280;25175;50.140;18.990;2024-03-23T12:38:31;96818.69;;;19.48;29.23
39491;BME280;25175;50.140;18.990;2024-03-23T12:45:17;96805.88;;;19.50;29.26
39491;BME280;25175;50.140;18.990;2024-03-23T12:48:25;96787.13;;;19.55;28.92
39491;BME280;25175;50.140;18.990;2024-03-23T12:51:28;96782.75;;;19.59;29.18
39491;BME280;25175;50.140;18.990;2024-03-23T12:54:31;96779.53;;;19.71;29.54
39491;BME280;25175;50.140;18.990;2024-03-23T12:57:40;96779.38;;;19.76;29.67
39491;BME280;25175;50.140;18.990;2024-03-23T13:00:50;96765.75;;;19.69;29.09
39491;BME280;25175;50.140;18.990;2024-03-23T13:03:58;96777.34;;;19.81;29.71
39491;BME280;25175;50.140;18.990;2024-03-23T13:07:11;96771.91;;;19.86;29.92
39491;BME280;25175;50.140;18.990;2024-03-23T13:10:24;96772.53;;;19.83;29.23
39491;BME280;25175;50.140;18.990;2024-03-23T13:13:39;96763.72;;;19.74;29.45
39491;BME280;25175;50.140;18.990;2024-03-23T13:16:44;96764.94;;;19.68;29.97
39491;BME280;25175;50.140;18.990;2024-03-23T13:19:47;96755.84;;;19.61;29.98
39491;BME280;25175;50.140;18.990;2024-03-23T13:23:03;96762.81;;;19.48;29.91
39491;BME280;25175;50.140;18.990;2024-03-23T13:34:09;96771.69;;;19.13;30.02
39491;BME280;25175;50.140;18.990;2024-03-23T13:37:16;96770.53;;;19.06;30.37
39491;BME280;25175;50.140;18.990;2024-03-23T13:40:53;96781.13;;;18.97;30.81
39491;BME280;25175;50.140;18.990;2024-03-23T13:43:57;96794.16;;;18.85;30.97
39491;BME280;25175;50.140;18.990;2024-03-23T13:47:05;96810.44;;;18.70;30.96
39491;BME280;25175;50.140;18.990;2024-03-23T13:50:15;96891.22;;;18.69;31.71
39491;BME280;25175;50.140;18.990;2024-03-23T13:53:47;97008.69;;;18.26;38.18
39491;BME280;25175;50.140;18.990;2024-03-23T13:57:01;97052.91;;;17.24;44.83
39491;BME280;25175;50.140;18.990;2024-03-23T14:00:12;97077.03;;;16.24;46.30
39491;BME280;25175;50.140;18.990;2024-03-23T14:03:24;97089.50;;;15.32;48.98
39491;BME280;25175;50.140;18.990;2024-03-23T14:06:35;97091.84;;;14.50;51.66
39491;BME280;25175;50.140;18.990;2024-03-23T14:13:38;97101.38;;;13.09;56.45
39491;BME280;25175;50.140;18.990;2024-03-23T14:16:52;97109.31;;;12.73;57.36
39491;BME280;25175;50.140;18.990;2024-03-23T14:20:32;97095.47;;;12.46;58.54
39491;BME280;25175;50.140;18.990;2024-03-23T14:23:39;97059.41;;;12.10;59.48
39491;BME280;25175;50.140;18.990;2024-03-23T14:26:43;97056.47;;;12.01;59.63
39491;BME280;25175;50.140;18.990;2024-03-23T14:41:49;97051.00;;;12.08;61.25
39491;BME280;25175;50.140;18.990;2024-03-23T14:44:53;97053.66;;;12.13;60.51
39491;BME280;25175;50.140;18.990;2024-03-23T14:48:57;97044.28;;;12.27;60.34
39491;BME280;25175;50.140;18.990;2024-03-23T14:52:14;97027.06;;;12.46;60.55
39491;BME280;25175;50.140;18.990;2024-03-23T14:55:25;97045.03;;;12.64;59.73
39491;BME280;25175;50.140;18.990;2024-03-23T14:58:37;97063.50;;;12.74;59.01
39491;BME280;25175;50.140;18.990;2024-03-23T15:01:55;97093.03;;;12.81;59.20
39491;BME280;25175;50.140;18.990;2024-03-23T15:05:07;97138.59;;;12.81;59.25
39491;BME280;25175;50.140;18.990;2024-03-23T15:08:13;97124.06;;;12.74;59.54
39491;BME280;25175;50.140;18.990;2024-03-23T15:11:23;97113.47;;;12.64;59.88
39491;BME280;25175;50.140;18.990;2024-03-23T15:14:29;97115.75;;;12.50;60.27
39491;BME280;25175;50.140;18.990;2024-03-23T15:17:38;97097.53;;;12.44;61.04
39491;BME280;25175;50.140;18.990;2024-03-23T15:21:07;97095.38;;;12.36;61.49
39491;BME280;25175;50.140;18.990;2024-03-23T15:24:15;97093.25;;;12.33;62.13
39491;BME280;25175;50.140;18.990;2024-03-23T15:27:31;97090.84;;;12.26;62.20
39491;BME280;25175;50.140;18.990;2024-03-23T15:31:05;97087.91;;;12.18;62.03
39491;BME280;25175;50.140;18.990;2024-03-23T15:39:02;97080.94;;;12.02;62.07
39491;BME280;25175;50.140;18.990;2024-03-23T15:46:25;97081.56;;;11.61;62.23
39491;BME280;25175;50.140;18.990;2024-03-23T15:49:30;97107.16;;;11.70;62.43
39491;BME280;25175;50.140;18.990;2024-03-23T15:52:50;97090.28;;;11.66;62.62
39491;BME280;25175;50.140;18.990;2024-03-23T15:56:17;97103.16;;;11.63;62.78
39491;BME280;25175;50.140;18.990;2024-03-23T16:03:20;97123.44;;;11.46;62.90
39491;BME280;25175;50.140;18.990;2024-03-23T16:06:50;97133.78;;;11.31;63.16
39491;BME280;25175;50.140;18.990;2024-03-23T16:09:54;97138.66;;;11.22;63.63
39491;BME280;25175;50.140;18.990;2024-03-23T16:13:01;97129.78;;;11.07;63.43
39491;BME280;25175;50.140;18.990;2024-03-23T16:16:11;97148.72;;;11.09;63.72
39491;BME280;25175;50.140;18.990;2024-03-23T16:19:30;97159.63;;;11.01;64.00
39491;BME280;25175;50.140;18.990;2024-03-23T16:22:39;97117.97;;;10.88;64.58
39491;BME280;25175;50.140;18.990;2024-03-23T16:25:46;97139.63;;;10.78;64.60
39491;BME280;25175;50.140;18.990;2024-03-23T16:29:39;97141.69;;;10.76;65.09
39491;BME280;25175;50.140;18.990;2024-03-23T16:32:45;97140.75;;;10.66;65.69
39491;BME280;25175;50.140;18.990;2024-03-23T16:36:07;97095.03;;;10.07;65.62
39491;BME280;25175;50.140;18.990;2024-03-23T16:39:36;97194.66;;;10.40;66.61
39491;BME280;25175;50.140;18.990;2024-03-23T16:42:40;97261.94;;;10.35;67.25
39491;BME280;25175;50.140;18.990;2024-03-23T16:45:52;97284.75;;;10.06;62.61
39491;BME280;25175;50.140;18.990;2024-03-23T16:49:02;97315.81;;;9.75;62.51
39491;BME280;25175;50.140;18.990;2024-03-23T16:52:08;97330.84;;;9.45;62.34
39491;BME280;25175;50.140;18.990;2024-03-23T16:55:22;97340.50;;;9.10;63.37
39491;BME280;25175;50.140;18.990;2024-03-23T16:58:39;97357.25;;;8.68;63.96
39491;BME280;25175;50.140;18.990;2024-03-23T17:06:26;97369.63;;;8.13;65.50
39491;BME280;25175;50.140;18.990;2024-03-23T17:10:12;97373.59;;;7.98;66.10
39491;BME280;25175;50.140;18.990;2024-03-23T17:13:21;97372.00;;;7.97;65.58
39491;BME280;25175;50.140;18.990;2024-03-23T17:16:29;97382.75;;;7.89;65.53
39491;BME280;25175;50.140;18.990;2024-03-23T17:19:48;97386.50;;;7.75;65.05
39491;BME280;25175;50.140;18.990;2024-03-23T17:23:25;97331.59;;;7.21;65.24
39491;BME280;25175;50.140;18.990;2024-03-23T17:31:05;97430.22;;;7.37;65.84
39491;BME280;25175;50.140;18.990;2024-03-23T17:34:32;97432.78;;;7.43;66.08
39491;BME280;25175;50.140;18.990;2024-03-23T17:38:06;97434.34;;;7.51;66.38
39491;BME280;25175;50.140;18.990;2024-03-23T17:45:17;97438.81;;;7.19;65.35
39491;BME280;25175;50.140;18.990;2024-03-23T17:49:08;97441.31;;;7.32;63.43
39491;BME280;25175;50.140;18.990;2024-03-23T17:57:04;97479.84;;;6.93;64.15
39491;BME280;25175;50.140;18.990;2024-03-23T18:00:12;97469.69;;;6.78;64.41
39491;BME280;25175;50.140;18.990;2024-03-23T18:03:18;97477.97;;;6.69;65.36
39491;BME280;25175;50.140;18.990;2024-03-23T18:06:35;97245.97;;;5.19;65.25
39491;BME280;25175;50.140;18.990;2024-03-23T18:10:22;97488.00;;;6.65;65.09
39491;BME280;25175;50.140;18.990;2024-03-23T18:13:27;97498.25;;;6.60;64.72
39491;BME280;25175;50.140;18.990;2024-03-23T18:19:58;97509.34;;;6.43;63.97
39491;BME280;25175;50.140;18.990;2024-03-23T18:23:14;97535.00;;;6.33;64.57
39491;BME280;25175;50.140;18.990;2024-03-23T18:30:13;97512.22;;;6.02;63.61
39491;BME280;25175;50.140;18.990;2024-03-23T18:33:45;97512.84;;;5.91;64.27
39491;BME280;25175;50.140;18.990;2024-03-23T18:37:06;97510.47;;;5.83;64.19
39491;BME280;25175;50.140;18.990;2024-03-23T18:40:33;97516.28;;;5.79;64.63
39491;BME280;25175;50.140;18.990;2024-03-23T18:45:08;97528.47;;;5.78;64.21
39491;BME280;25175;50.140;18.990;2024-03-23T18:47:44;97530.50;;;5.76;64.36
39491;BME280;25175;50.140;18.990;2024-03-23T18:50:52;97530.69;;;5.75;64.20
39491;BME280;25175;50.140;18.990;2024-03-23T18:58:29;97351.31;;;4.50;63.82
39491;BME280;25175;50.140;18.990;2024-03-23T19:01:52;97549.31;;;5.65;63.74
39491;BME280;25175;50.140;18.990;2024-03-23T19:04:59;97544.28;;;5.64;63.65
39491;BME280;25175;50.140;18.990;2024-03-23T19:08:03;97527.66;;;5.65;63.83
39491;BME280;25175;50.140;18.990;2024-03-23T19:11:08;97530.28;;;5.65;63.51
39491;BME280;25175;50.140;18.990;2024-03-23T19:18:09;97522.22;;;5.60;63.28
39491;BME280;25175;50.140;18.990;2024-03-23T19:21:16;97524.06;;;5.59;63.14
39491;BME280;25175;50.140;18.990;2024-03-23T19:24:28;97517.44;;;5.63;63.63
39491;BME280;25175;50.140;18.990;2024-03-23T19:28:01;97504.25;;;5.65;63.02
39491;BME280;25175;50.140;18.990;2024-03-23T19:31:16;97515.66;;;5.64;62.67
39491;BME280;25175;50.140;18.990;2024-03-23T19:34:19;97527.25;;;5.61;62.27
39491;BME280;25175;50.140;18.990;2024-03-23T19:37:55;97527.25;;;5.61;61.97
39491;BME280;25175;50.140;18.990;2024-03-23T19:41:13;97534.84;;;5.63;62.00
39491;BME280;25175;50.140;18.990;2024-03-23T19:45:00;97545.25;;;5.63;61.24
39491;BME280;25175;50.140;18.990;2024-03-23T19:51:44;97557.66;;;5.61;60.89
39491;BME280;25175;50.140;18.990;2024-03-23T19:59:26;97546.25;;;5.55;59.55
39491;BME280;25175;50.140;18.990;2024-03-23T20:02:44;97540.66;;;5.52;59.78
39491;BME280;25175;50.140;18.990;2024-03-23T20:06:04;97539.06;;;5.51;59.97
39491;BME280;25175;50.140;18.990;2024-03-23T20:09:14;97541.25;;;5.54;60.15
39491;BME280;25175;50.140;18.990;2024-03-23T20:12:17;97558.06;;;5.58;59.16
39491;BME280;25175;50.140;18.990;2024-03-23T20:15:51;97566.47;;;5.60;59.68
39491;BME280;25175;50.140;18.990;2024-03-23T20:18:55;97552.84;;;5.51;59.98
39491;BME280;25175;50.140;18.990;2024-03-23T20:22:08;97567.72;;;5.64;59.43
39491;BME280;25175;50.140;18.990;2024-03-23T20:25:35;97541.84;;;5.56;59.30
39491;BME280;25175;50.140;18.990;2024-03-23T20:28:39;97556.88;;;5.60;59.17
39491;BME280;25175;50.140;18.990;2024-03-23T20:31:50;97553.06;;;5.63;59.29
39491;BME280;25175;50.140;18.990;2024-03-23T20:38:58;97548.50;;;5.71;59.05
39491;BME280;25175;50.140;18.990;2024-03-23T20:45:29;97558.09;;;5.71;58.44
39491;BME280;25175;50.140;18.990;2024-03-23T20:48:43;97540.88;;;5.70;58.83
39491;BME280;25175;50.140;18.990;2024-03-23T20:55:56;97562.50;;;5.64;58.15